Latest 15 Minute Observations

23 Stations

15 Minute Data | America/Los_Angeles
as of 5/25/20 7:43 PM PDT
Station Date Time Temp (°F) RH (%) Dew Pt (°F) Wet Bulb (°F) Canopy Temp (°F) Wind Dir (°) Wind Spd (mph) Wind Gust (mph) Latest Rain (In) Daily Rain (In) Daily Min Temp (°F) Daily Max Temp (°F) Daily Leaf Wet Hrs (hrs)
Ukiah-SE (Ruddick) 5/25/20 1745 91.0   3.5 24   3 49.3   6.9 62.2   3.5 92.7   3.2 N | 353 12.8 18.4 0.00 0.00 52.0 95.5 -
Upper Lake 5/25/20 1930 85.1   3.0 33   6 52.6   7.5 63.0   4.2 - WNW | 291 5.4 11.5 0.00 0.00 51.0 92.9 1.6
Scotts Valley 5/25/20 1930 83.9   2.1 31   3 50.3   4.6 61.6   2.6 - W | 264 2.1 6.8 0.00 0.00 46.3 94.3 2.8
Kelseyville 5/25/20 1930 85.7   2.9 29   2 49.5   0.5 61.5   0.8 - WNW | 290 5.2 13.2 0.00 0.00 49.6 94.5 0.0
Kelseyville (Clark Drive) 5/25/20 1930 86.8   2.7 - - - - - - - - - 48.9 95.8 -
Kelseyville Remote 5/25/20 1930 86.7   2.9 25   3 46.6   0.8 60.3   0.2 - - - - - - 50.7 95.5 -
Kelseyville-South 5/25/20 1930 86.8   3.8 27   3 48.6   5.9 61.2   3.3 - WNW | 285 3.9 7.8 0.00 0.00 51.6 93.6 0.0
Bell Hill-West 5/25/20 1930 84.9   2.1 32   5 51.4   6.1 62.3   3.3 - WSW | 242 0.5 7.4 0.00 0.00 52.2 92.9 -
Wight Way 5/25/20 1930 85.0   3.6 34   3 53.7   5.4 63.5   3.5 - WSW | 257 2.8 6.2 0.00 0.00 47.4 95.0 -
High Valley Ridgeline (Brassfield) 5/25/20 1930 83.0   2.8 34   2 51.8   4.3 57.9   3.6 - WSW | 255 8.3 15.1 0.00 0.00 67.6 91.0 -
Ridgeline Top (Brassfield) 5/25/20 1930 81.7   2.8 - - - - - - - - - 68.4 91.6 -
Ridgeline Low (Brassfield) 5/25/20 1930 82.7   3.2 - - - - - - - - - 62.1 90.2 -
High Valley Winery 5/25/20 1930 84.6   2.3 34   3 53.0   4.1 53.0   4.1 - W | 265 5.9 11.6 0.00 0.00 49.6 92.1 -
Red Hills-East 5/25/20 1930 82.9   4.2 36   1 53.0   4.6 62.8   3.3 - W | 278 3.3 7.9 0.00 0.00 57.8 92.6 -
Red Hills (Beckstoffer) 5/25/20 1930 85.6   3.5 32   2 52.3   4.8 62.9   3.1 - - - - - - 48.6 93.2 -
Middletown (Diamond D) 5/25/20 1930 86.8   4.5 29   1 50.5   4.8 62.2   3.1 - SW | 216 6.5 13.3 0.00 0.00 54.4 93.8 -
Middletown-West (Bella Vista) 5/25/20 1930 85.8   4.2 29   2 49.9   5.6 - - - - - 0.00 0.00 51.5 92.9 -
Middletown-South 5/25/20 1930 86.4   5.3 27   2 48.6   6.3 61.2   3.8 - SW | 224 3.9 10.7 0.00 0.00 53.2 92.3 -
Lower Bohn 5/25/20 1930 87.9   5.0 30   3 52.6   7.0 63.4   4.2 - WSW | 246 4.7 8.6 0.00 0.00 49.8 96.8 -
Upper Bohn-North 5/25/20 1930 86.2   1.9 30   8 51.3   9.3 62.4   4.5 - S | 171 2.9 5.7 0.00 0.00 58.5 97.4 -
Upper Bohn-South 5/25/20 1930 89.7   2.3 26   3 50.4   5.7 62.5   2.9 - SSE | 155 1.0 3.3 0.00 0.00 58.6 96.8 -
Morgan Valley 5/25/20 1930 83.5   2.4 27   12 46.0   16.5 59.4   6.3 - W | 269 11.0 14.9 0.00 0.00 67.0 87.8 -
Max     89.7 36 53.7 63.5 - - 11.0 15.1 0.00 0.00 68.4 97.4 2.8
Avg     85.3 30 50.7 61.2 - - 4.5 9.6 0.00 - - - -
Min     81.7 25 46.0 53.0 - - 0.5 3.3 0.00 0.00 46.3 87.8 0.0